Time;durP1;ratioP1;P1;durP2;ratioP2;P2;SDS_P1;SDS_P2;PMS_P1;PMS_P2;Temp;Humidity;BMP_temperature;BMP_pressure;BME280_temperature;BME280_humidity;BME280_pressure;Samples;Min_cycle;Max_cycle;Signal;HPM_P1;HPM_P2
2022/05/03 00:00:09;;;;;;;11.38;10.68;;;15.40;49.10;;;;;;20556;6764;316051;-71
2022/05/03 00:02:51;;;;;;;10.10;9.50;;;15.30;49.00;;;;;;20802;6764;117396;-71
2022/05/03 00:05:37;;;;;;;9.30;8.70;;;15.20;48.80;;;;;;20805;6764;118093;-71
2022/05/03 00:08:32;;;;;;;10.90;10.10;;;14.90;49.00;;;;;;20561;6764;289223;-71
2022/05/03 00:11:24;;;;;;;10.20;9.70;;;15.10;49.50;;;;;;20389;6779;310752;-71
2022/05/03 00:14:16;;;;;;;9.23;8.73;;;15.50;49.10;;;;;;20545;6766;277255;-71
2022/05/03 00:16:52;;;;;;;8.57;8.07;;;15.70;48.90;;;;;;20760;6766;117098;-71
2022/05/03 00:19:28;;;;;;;8.57;7.90;;;15.50;48.70;;;;;;20754;6769;118843;-72
2022/05/03 00:22:03;;;;;;;10.00;9.37;;;15.30;49.20;;;;;;20607;6765;117765;-72
2022/05/03 00:24:39;;;;;;;9.40;8.90;;;15.20;49.40;;;;;;20487;6784;342607;-72
2022/05/03 00:27:15;;;;;;;10.50;9.90;;;15.20;49.50;;;;;;20550;6775;319299;-72
2022/05/03 00:29:54;;;;;;;10.15;9.55;;;15.50;48.80;;;;;;20478;6784;303830;-72
2022/05/03 00:32:29;;;;;;;9.80;9.30;;;15.80;48.30;;;;;;20526;6773;283765;-72
2022/05/03 00:35:05;;;;;;;10.53;9.93;;;15.90;48.20;;;;;;20536;6776;300407;-72
2022/05/03 00:37:42;;;;;;;9.17;8.47;;;16.00;47.80;;;;;;20682;6792;121816;-72
2022/05/03 00:40:18;;;;;;;8.40;7.90;;;15.80;47.90;;;;;;20672;6794;117261;-72
2022/05/03 00:43:26;;;;;;;8.50;8.03;;;15.30;48.30;;;;;;20760;6779;117754;-72
2022/05/03 00:46:02;;;;;;;9.03;8.53;;;15.00;48.80;;;;;;20693;6798;117970;-72
2022/05/03 00:48:47;;;;;;;8.73;8.17;;;14.70;49.10;;;;;;20714;6790;117882;-72
2022/05/03 00:51:27;;;;;;;8.43;7.83;;;14.30;50.30;;;;;;20453;6824;120216;-72
2022/05/03 00:54:06;;;;;;;9.73;9.23;;;14.60;50.40;;;;;;20618;6767;283408;-72
2022/05/03 00:56:49;;;;;;;9.67;9.07;;;15.00;49.80;;;;;;20588;6759;295756;-72
2022/05/03 00:59:45;;;;;;;9.30;8.57;;;15.00;49.80;;;;;;20790;6766;118362;-72
2022/05/03 01:02:23;;;;;;;9.40;8.80;;;15.00;49.60;;;;;;20598;6827;117455;-72
2022/05/03 01:05:06;;;;;;;8.73;8.13;;;14.60;49.70;;;;;;20601;6810;117080;-72
2022/05/03 01:07:41;;;;;;;9.80;9.27;;;14.40;50.00;;;;;;20597;6754;332372;-72
2022/05/03 01:10:43;;;;;;;10.47;9.87;;;14.60;51.50;;;;;;20488;6783;279746;-72
2022/05/03 01:13:29;;;;;;;9.63;8.83;;;14.60;49.80;;;;;;20693;6791;117929;-72
2022/05/03 01:16:05;;;;;;;9.70;8.90;;;14.70;49.90;;;;;;20768;6775;117736;-72
2022/05/03 01:18:41;;;;;;;10.02;9.32;;;14.40;51.20;;;;;;20611;6756;307283;-72
2022/05/03 01:21:53;;;;;;;8.60;8.03;;;14.40;51.20;;;;;;20684;6771;118264;-72
2022/05/03 01:24:58;;;;;;;9.27;8.67;;;14.30;50.90;;;;;;20865;6739;123124;-72
2022/05/03 01:27:47;;;;;;;10.77;10.07;;;13.90;51.00;;;;;;20355;6816;312325;-72
2022/05/03 01:30:22;;;;;;;9.93;9.33;;;14.20;51.20;;;;;;20062;6831;119320;-72
2022/05/03 01:32:58;;;;;;;11.15;10.45;;;14.00;50.80;;;;;;20606;6760;308074;-72
2022/05/03 01:35:40;;;;;;;10.60;9.80;;;14.20;51.00;;;;;;20803;6757;118109;-72
2022/05/03 01:38:19;;;;;;;10.43;9.73;;;14.00;50.80;;;;;;20824;6757;117350;-72
2022/05/03 01:41:21;;;;;;;11.75;10.95;;;13.70;51.10;;;;;;20549;6757;339798;-72
2022/05/03 01:44:36;;;;;;;9.87;9.13;;;13.90;51.30;;;;;;20758;6772;125086;-72
2022/05/03 01:47:34;;;;;;;11.20;10.50;;;13.70;51.10;;;;;;20534;6782;308176;-72
2022/05/03 01:50:33;;;;;;;11.90;11.17;;;13.90;51.30;;;;;;20591;6753;281757;-72
2022/05/03 01:53:21;;;;;;;12.27;11.43;;;14.30;50.90;;;;;;20650;6743;306107;-72
2022/05/03 01:56:04;;;;;;;11.23;10.53;;;14.60;49.80;;;;;;20626;6743;311189;-72
2022/05/03 01:59:09;;;;;;;10.63;9.87;;;14.60;49.80;;;;;;20819;6758;117526;-71
2022/05/03 02:01:50;;;;;;;10.93;10.37;;;14.30;50.20;;;;;;20368;6768;294894;-71
2022/05/03 02:04:35;;;;;;;10.13;9.40;;;14.30;50.20;;;;;;20847;6753;117558;-71
2022/05/03 02:07:31;;;;;;;10.50;9.88;;;14.20;50.30;;;;;;20612;6753;335722;-71
2022/05/03 02:10:07;;;;;;;10.87;10.07;;;14.20;50.30;;;;;;20781;6814;117350;-71
2022/05/03 02:12:43;;;;;;;12.07;11.07;;;13.70;50.80;;;;;;20774;6768;117481;-71
2022/05/03 02:15:25;;;;;;;12.00;11.20;;;13.70;50.60;;;;;;20569;6768;311830;-71
2022/05/03 02:18:05;;;;;;;10.67;10.00;;;13.70;51.00;;;;;;20742;6814;125277;-71
2022/05/03 02:20:50;;;;;;;12.13;11.10;;;13.70;51.00;;;;;;20709;6768;118638;-71
2022/05/03 02:23:45;;;;;;;11.17;10.47;;;13.50;51.30;;;;;;20580;6763;304404;-71
2022/05/03 02:26:34;;;;;;;11.00;10.30;;;13.70;51.90;;;;;;20836;6753;117438;-71
2022/05/03 02:29:10;;;;;;;11.10;10.40;;;13.60;51.60;;;;;;20579;6763;336982;-71
2022/05/03 02:31:49;;;;;;;10.60;9.90;;;13.70;52.30;;;;;;20636;6753;121537;-71
2022/05/03 02:34:30;;;;;;;12.03;11.23;;;13.70;52.00;;;;;;20521;6768;331243;-71
2022/05/03 02:37:22;;;;;;;12.40;11.70;;;13.90;51.80;;;;;;20615;6753;340810;-71
2022/05/03 02:40:08;;;;;;;11.33;10.53;;;14.20;51.10;;;;;;20774;6763;117610;-72
2022/05/03 02:42:43;;;;;;;11.47;10.67;;;14.00;51.00;;;;;;20778;6768;117965;-71
2022/05/03 02:45:19;;;;;;;13.07;12.27;;;13.60;51.30;;;;;;20569;6768;314023;-71
2022/05/03 02:48:04;;;;;;;12.03;11.23;;;13.70;51.10;;;;;;20817;6753;119721;-72
2022/05/03 02:50:53;;;;;;;11.00;10.30;;;13.60;50.90;;;;;;20708;6763;119565;-71
2022/05/03 02:53:43;;;;;;;12.00;11.30;;;13.40;51.40;;;;;;20559;6768;306840;-73
2022/05/03 02:56:24;;;;;;;12.93;12.13;;;13.60;51.90;;;;;;20570;6768;307773;-71
2022/05/03 03:01:47;;;;;;;11.50;10.80;;;13.90;51.20;;;;;;20607;6753;306736;-71
2022/05/03 03:02:02;;;;;;;11.57;10.80;;;14.10;50.50;;;;;;20569;6825;119101;-72
2022/05/03 03:04:52;;;;;;;13.30;12.27;;;13.90;50.80;;;;;;20514;6783;308243;-70
2022/05/03 03:07:28;;;;;;;11.20;10.60;;;14.10;50.60;;;;;;20475;6798;310628;-71
2022/05/03 03:10:04;;;;;;;11.43;10.50;;;14.10;50.60;;;;;;20617;6819;118480;-70
2022/05/03 03:12:47;;;;;;;12.03;11.13;;;13.60;51.00;;;;;;20680;6798;118039;-70
2022/05/03 03:15:28;;;;;;;10.97;10.27;;;13.50;50.90;;;;;;20743;6783;119192;-70
2022/05/03 03:18:05;;;;;;;12.43;11.63;;;13.40;51.60;;;;;;20536;6778;278359;-70
2022/05/03 03:20:44;;;;;;;12.80;12.00;;;13.40;51.60;;;;;;20494;6778;309910;-71
2022/05/03 03:23:19;;;;;;;12.20;11.40;;;13.70;51.00;;;;;;20540;6779;311959;-70
2022/05/03 03:25:56;;;;;;;12.60;11.70;;;14.00;50.60;;;;;;20738;6778;119160;-71
2022/05/03 03:28:32;;;;;;;12.07;11.37;;;13.80;50.60;;;;;;20486;6787;309164;-70
2022/05/03 03:31:08;;;;;;;11.47;10.67;;;13.80;50.60;;;;;;20608;6793;118067;-70
2022/05/03 03:33:43;;;;;;;12.73;11.90;;;13.70;50.70;;;;;;20471;6779;334775;-70
2022/05/03 03:36:19;;;;;;;11.60;10.80;;;13.70;50.70;;;;;;20792;6764;117756;-71
2022/05/03 03:38:57;;;;;;;11.30;10.30;;;13.60;50.70;;;;;;20810;6764;117875;-70
2022/05/03 03:41:33;;;;;;;12.50;11.70;;;13.30;51.00;;;;;;20383;6779;337666;-71
2022/05/03 03:44:09;;;;;;;12.17;11.37;;;13.40;51.10;;;;;;20779;6783;125109;-70
2022/05/03 03:46:44;;;;;;;13.13;12.32;;;13.40;51.00;;;;;;20564;6794;276860;-71
2022/05/03 03:49:20;;;;;;;12.27;11.33;;;13.50;50.90;;;;;;20780;6797;117319;-70
2022/05/03 03:52:00;;;;;;;10.73;10.03;;;13.40;50.80;;;;;;20513;6794;119197;-71
2022/05/03 03:54:36;;;;;;;13.10;12.27;;;13.10;51.20;;;;;;20558;6767;306776;-71
2022/05/03 03:57:11;;;;;;;11.33;10.33;;;13.30;51.50;;;;;;20688;6797;117560;-71
2022/05/03 03:59:47;;;;;;;12.80;12.00;;;13.30;51.10;;;;;;20520;6770;278368;-71
2022/05/03 04:02:24;;;;;;;13.02;12.32;;;13.30;51.00;;;;;;20496;6788;307845;-73
2022/05/03 04:04:58;;;;;;;14.02;13.13;;;13.60;50.30;;;;;;20526;6786;345364;-72
2022/05/03 04:07:35;;;;;;;11.93;11.23;;;13.50;49.60;;;;;;20731;6785;119741;-70
2022/05/03 04:10:10;;;;;;;13.03;12.23;;;13.50;49.80;;;;;;20532;6769;279239;-70
2022/05/03 04:12:46;;;;;;;11.57;10.57;;;13.60;51.10;;;;;;20713;6786;118035;-70
2022/05/03 04:15:21;;;;;;;12.67;11.77;;;13.40;50.50;;;;;;20715;6786;117629;-74
2022/05/03 04:17:57;;;;;;;11.73;11.02;;;13.10;50.90;;;;;;20535;6771;278900;-71
2022/05/03 04:20:33;;;;;;;13.63;12.83;;;13.60;50.40;;;;;;20469;6781;308967;-71
2022/05/03 04:23:09;;;;;;;12.23;11.52;;;13.50;50.30;;;;;;20541;6788;307795;-69
2022/05/03 04:25:45;;;;;;;12.52;11.73;;;13.80;50.00;;;;;;20468;6808;343310;-70
2022/05/03 04:28:20;;;;;;;13.50;12.70;;;14.00;49.40;;;;;;20504;6794;293863;-70
2022/05/03 04:30:56;;;;;;;12.07;11.37;;;14.10;49.10;;;;;;20643;6794;117429;-71
2022/05/03 04:33:31;;;;;;;11.40;10.60;;;13.90;49.50;;;;;;20707;6787;117984;-73
2022/05/03 04:36:08;;;;;;;13.97;12.67;;;13.60;50.40;;;;;;20560;6772;278961;-72
2022/05/03 04:38:44;;;;;;;12.30;11.40;;;13.50;50.30;;;;;;20738;6786;117970;-75
2022/05/03 04:41:21;;;;;;;12.40;11.60;;;13.40;50.30;;;;;;20596;6786;117485;-74
2022/05/03 04:43:56;;;;;;;11.70;10.90;;;13.20;50.70;;;;;;20771;6771;117368;-73
2022/05/03 04:46:32;;;;;;;13.20;12.40;;;13.20;51.70;;;;;;20568;6771;282912;-72
2022/05/03 04:49:07;;;;;;;12.87;11.70;;;13.10;51.60;;;;;;20810;6762;117799;-73
2022/05/03 04:51:43;;;;;;;12.90;11.90;;;13.20;51.40;;;;;;20619;6762;118421;-74
2022/05/03 04:54:19;;;;;;;13.62;12.70;;;13.00;51.40;;;;;;20589;6762;304022;-75
2022/05/03 04:56:58;;;;;;;12.17;11.37;;;13.20;50.90;;;;;;20810;6762;117399;-76
2022/05/03 04:59:33;;;;;;;12.43;11.53;;;13.10;50.70;;;;;;20782;6762;123637;-74
2022/05/03 05:02:09;;;;;;;11.57;10.67;;;12.90;51.10;;;;;;20640;6762;118394;-74
2022/05/03 05:04:44;;;;;;;10.83;10.13;;;12.60;51.40;;;;;;20799;6762;118345;-75
2022/05/03 05:07:23;;;;;;;11.40;10.70;;;12.50;51.70;;;;;;20804;6763;117297;-70
2022/05/03 05:12:51;;;;;;;13.43;12.63;;;12.70;52.40;;;;;;20596;6763;279819;-70
2022/05/03 05:15:27;;;;;;;13.68;12.80;;;13.20;51.70;;;;;;20579;6763;324929;-67
2022/05/03 05:18:03;;;;;;;11.90;11.00;;;13.40;51.00;;;;;;20787;6762;117395;-69
2022/05/03 05:20:42;;;;;;;10.70;10.10;;;13.40;51.00;;;;;;20715;6777;117919;-70
2022/05/03 05:23:16;;;;;;;11.00;10.23;;;13.20;51.40;;;;;;20811;6763;121159;-70
2022/05/03 05:25:51;;;;;;;11.23;10.53;;;13.00;51.80;;;;;;20739;6763;117950;-73
2022/05/03 05:28:27;;;;;;;10.87;10.23;;;12.80;52.00;;;;;;20797;6768;118989;-70
2022/05/03 05:31:02;;;;;;;12.52;11.82;;;12.70;52.20;;;;;;20530;6764;309254;-70
2022/05/03 05:33:38;;;;;;;12.20;11.40;;;13.00;52.50;;;;;;20613;6749;306376;-71
2022/05/03 05:36:13;;;;;;;12.20;11.30;;;13.50;51.80;;;;;;20850;6749;117668;-71
2022/05/03 05:38:53;;;;;;;12.70;11.90;;;13.70;51.10;;;;;;20633;6749;302957;-71
2022/05/03 05:41:29;;;;;;;11.70;11.10;;;13.60;51.00;;;;;;20487;6748;279499;-73
2022/05/03 05:44:04;;;;;;;12.77;11.87;;;13.90;50.40;;;;;;20583;6762;304850;-73
2022/05/03 05:46:40;;;;;;;11.17;10.37;;;14.20;49.80;;;;;;20849;6749;117830;-72
2022/05/03 05:49:15;;;;;;;12.02;11.23;;;14.10;49.90;;;;;;20571;6768;311730;-73
2022/05/03 05:53:31;;;;;;;12.73;11.93;;;14.40;49.80;;;;;;20455;6743;308358;-70
2022/05/03 05:54:27;;;;;;;13.00;12.10;;;14.40;49.20;;;;;;20614;6800;306175;-71
2022/05/03 05:57:05;;;;;;;12.48;11.68;;;14.80;48.20;;;;;;20656;6743;279264;-70
2022/05/03 05:59:42;;;;;;;12.82;11.80;;;14.80;48.50;;;;;;20629;6743;307060;-70
2022/05/03 06:02:17;;;;;;;12.43;11.70;;;14.90;48.60;;;;;;20436;6814;331319;-70
2022/05/03 06:04:53;;;;;;;12.55;11.80;;;15.10;48.50;;;;;;20657;6743;318692;-70
2022/05/03 06:07:29;;;;;;;10.93;10.33;;;15.20;48.60;;;;;;20844;6743;117858;-72
2022/05/03 06:10:04;;;;;;;12.93;12.13;;;14.90;48.80;;;;;;20639;6743;340007;-70
2022/05/03 06:12:40;;;;;;;13.00;12.10;;;14.90;48.70;;;;;;20637;6749;276008;-70
2022/05/03 06:15:16;;;;;;;11.93;11.10;;;15.10;48.10;;;;;;20852;6764;117356;-70
2022/05/03 06:17:54;;;;;;;12.93;12.00;;;15.00;48.50;;;;;;20612;6764;305658;-70
2022/05/03 06:20:33;;;;;;;14.67;13.53;;;15.00;48.70;;;;;;20806;6764;117456;-70
2022/05/03 06:23:05;;;;;;;13.68;12.55;;;15.00;49.00;;;;;;20641;6764;290636;-70
2022/05/03 06:25:41;;;;;;;10.97;10.23;;;15.10;48.60;;;;;;20834;6749;117974;-73
2022/05/03 06:28:19;;;;;;;12.73;11.93;;;15.40;49.00;;;;;;20574;6764;309093;-73
2022/05/03 06:30:53;;;;;;;12.52;11.73;;;15.40;49.00;;;;;;20486;6772;309656;-73
2022/05/03 06:33:29;;;;;;;11.93;11.30;;;15.80;48.60;;;;;;20636;6757;277558;-72
2022/05/03 06:36:05;;;;;;;12.20;11.50;;;16.40;48.10;;;;;;20655;6742;281413;-71
2022/05/03 06:38:42;;;;;;;11.03;10.03;;;16.50;48.30;;;;;;20862;6742;117338;-72
2022/05/03 06:41:18;;;;;;;11.35;10.65;;;16.50;48.70;;;;;;20511;6742;340361;-72
2022/05/03 06:43:57;;;;;;;11.10;10.50;;;17.50;46.10;;;;;;20640;6742;277379;-72
2022/05/03 06:46:30;;;;;;;10.50;9.80;;;17.50;46.10;;;;;;20860;6742;119133;-72
2022/05/03 06:49:06;;;;;;;12.52;11.63;;;17.80;46.70;;;;;;20647;6742;336305;-74
2022/05/03 06:51:41;;;;;;;11.10;10.20;;;18.20;44.90;;;;;;20665;6742;119088;-72
2022/05/03 06:54:17;;;;;;;10.00;9.40;;;18.40;45.40;;;;;;20865;6741;117347;-74
2022/05/03 06:56:53;;;;;;;11.23;10.43;;;18.50;45.90;;;;;;20861;6741;117094;-73
2022/05/03 06:59:28;;;;;;;11.35;10.75;;;18.50;46.00;;;;;;20651;6741;306875;-76
2022/05/03 07:02:06;;;;;;;10.50;9.80;;;19.30;43.50;;;;;;20450;6741;283270;-74
2022/05/03 07:04:43;;;;;;;11.05;10.38;;;19.30;43.40;;;;;;20147;6801;279282;-73
2022/05/03 07:07:16;;;;;;;10.43;9.80;;;19.80;42.40;;;;;;20462;6801;309345;-73
2022/05/03 07:09:52;;;;;;;10.47;9.87;;;19.70;42.30;;;;;;20585;6756;277518;-73
2022/05/03 07:12:28;;;;;;;11.20;10.38;;;19.90;42.20;;;;;;20617;6756;336140;-73
2022/05/03 07:15:05;;;;;;;11.33;10.63;;;20.20;41.20;;;;;;20644;6745;282222;-73
2022/05/03 07:23:32;;;;;;;9.90;9.20;;;20.10;42.30;;;;;;20720;6786;118592;-73
2022/05/03 07:26:07;;;;;;;9.97;9.30;;;19.90;42.50;;;;;;20856;6749;117165;-75
2022/05/03 07:28:43;;;;;;;10.87;10.10;;;19.80;42.40;;;;;;20635;6749;306400;-72
2022/05/03 07:31:19;;;;;;;10.67;10.00;;;20.00;42.50;;;;;;20652;6778;117502;-73
2022/05/03 07:33:54;;;;;;;10.73;9.80;;;20.20;42.40;;;;;;20533;6773;287430;-72
2022/05/03 07:36:30;;;;;;;10.38;9.77;;;20.50;42.10;;;;;;20502;6785;318080;-72
2022/05/03 07:39:05;;;;;;;10.23;9.53;;;21.00;40.10;;;;;;20735;6783;117400;-71
2022/05/03 07:41:41;;;;;;;10.13;9.50;;;21.20;40.80;;;;;;20568;6801;118275;-72
2022/05/03 07:44:16;;;;;;;9.67;9.07;;;21.20;41.20;;;;;;20771;6771;118235;-71
2022/05/03 07:46:53;;;;;;;9.80;9.17;;;21.60;40.90;;;;;;20572;6771;277793;-72
2022/05/03 07:49:28;;;;;;;10.20;9.60;;;21.60;40.90;;;;;;20562;6771;308904;-74
2022/05/03 07:52:04;;;;;;;10.17;9.47;;;22.20;39.60;;;;;;20421;6768;319545;-70
2022/05/03 07:54:40;;;;;;;9.33;8.83;;;22.70;38.70;;;;;;20774;6768;117838;-71
2022/05/03 07:57:16;;;;;;;9.40;8.90;;;23.00;37.70;;;;;;20529;6783;309777;-75
2022/05/03 07:59:55;;;;;;;8.60;8.10;;;22.90;37.60;;;;;;20712;6783;117577;-74
2022/05/03 08:02:32;;;;;;;7.90;7.40;;;23.10;38.50;;;;;;20744;6783;117027;-78
2022/05/03 08:05:10;;;;;;;8.90;8.20;;;23.30;38.40;;;;;;20478;6797;311370;-73
2022/05/03 08:07:46;;;;;;;8.55;8.05;;;23.30;38.40;;;;;;20577;6779;307460;-71
2022/05/03 08:10:19;;;;;;;8.63;7.93;;;23.70;36.60;;;;;;20569;6764;312816;-71
2022/05/03 08:12:55;;;;;;;7.40;6.90;;;24.00;36.40;;;;;;20850;6749;117916;-71
2022/05/03 08:15:30;;;;;;;8.90;8.30;;;23.90;36.80;;;;;;20555;6771;307278;-71
2022/05/03 08:18:06;;;;;;;7.63;7.13;;;23.90;37.40;;;;;;20812;6775;117159;-70
2022/05/03 08:20:42;;;;;;;8.07;7.55;;;24.00;37.70;;;;;;20577;6764;309080;-70
2022/05/03 08:23:18;;;;;;;8.00;7.50;;;24.00;37.70;;;;;;20800;6764;117614;-70
2022/05/03 08:25:54;;;;;;;8.70;8.20;;;24.00;37.50;;;;;;20769;6768;118700;-70
2022/05/03 08:28:29;;;;;;;8.23;7.70;;;23.90;37.50;;;;;;20816;6758;118249;-70
2022/05/03 08:31:05;;;;;;;7.97;7.47;;;23.70;37.80;;;;;;20709;6758;117343;-70
2022/05/03 08:33:41;;;;;;;8.47;7.87;;;23.70;37.30;;;;;;20570;6764;277790;-70
2022/05/03 08:36:17;;;;;;;7.50;7.10;;;23.70;37.20;;;;;;20591;6764;307232;-70
2022/05/03 08:42:07;;;;;;;6.00;5.60;;;24.20;36.60;;;;;;20614;6773;117569;-70
2022/05/03 08:44:43;;;;;;;6.30;5.87;;;24.10;36.40;;;;;;20755;6773;117603;-71
2022/05/03 08:47:18;;;;;;;5.90;5.50;;;23.80;36.50;;;;;;20614;6758;301729;-70
2022/05/03 08:49:55;;;;;;;5.30;5.00;;;24.00;34.60;;;;;;20537;6769;301784;-70
2022/05/03 08:52:33;;;;;;;4.78;4.47;;;24.30;34.10;;;;;;20546;6779;307595;-71
2022/05/03 08:55:05;;;;;;;5.37;5.00;;;24.60;33.60;;;;;;20536;6779;308211;-71
2022/05/03 08:57:42;;;;;;;5.70;5.40;;;24.80;32.70;;;;;;20630;6749;278043;-71
2022/05/03 09:00:18;;;;;;;4.87;4.63;;;25.00;33.80;;;;;;20527;6777;280435;-71
2022/05/03 09:02:54;;;;;;;4.87;4.57;;;25.10;32.50;;;;;;20575;6768;306374;-71
2022/05/03 09:05:30;;;;;;;5.77;5.37;;;25.40;31.90;;;;;;20490;6798;278557;-72
2022/05/03 09:08:08;;;;;;;4.50;4.20;;;25.40;31.90;;;;;;20510;6783;307850;-71
2022/05/03 09:10:44;;;;;;;3.37;3.27;;;25.60;30.60;;;;;;20653;6788;118424;-70
2022/05/03 09:13:18;;;;;;;6.40;5.30;;;25.30;30.40;;;;;;20511;6783;310306;-70
2022/05/03 09:15:55;;;;;;;3.10;2.90;;;25.30;30.40;;;;;;20754;6770;117206;-73
2022/05/03 09:18:29;;;;;;;3.07;2.87;;;25.20;31.50;;;;;;20743;6773;117993;-73
2022/05/03 09:24:01;;;;;;;2.37;2.27;;;25.10;29.60;;;;;;20597;6764;278096;-74
2022/05/03 09:26:40;;;;;;;2.60;2.50;;;25.20;28.90;;;;;;20577;6764;308364;-73
2022/05/03 09:29:16;;;;;;;3.40;3.20;;;25.40;29.90;;;;;;20571;6764;306761;-72
2022/05/03 09:31:52;;;;;;;3.15;3.03;;;25.40;29.90;;;;;;20427;6764;313077;-73
2022/05/03 09:34:27;;;;;;;3.08;2.70;;;25.50;29.00;;;;;;20597;6754;306786;-74
2022/05/03 09:37:05;;;;;;;3.33;3.17;;;25.60;29.20;;;;;;20745;6779;117112;-73
2022/05/03 09:39:45;;;;;;;2.70;2.60;;;25.00;30.70;;;;;;20727;6779;117958;-72
2022/05/03 09:42:20;;;;;;;3.15;3.05;;;25.00;30.00;;;;;;20571;6749;311693;-72
2022/05/03 09:44:57;;;;;;;3.20;3.10;;;25.30;29.80;;;;;;20548;6779;278190;-72
2022/05/03 09:47:33;;;;;;;3.13;2.93;;;25.30;29.80;;;;;;20549;6773;306104;-71
2022/05/03 09:50:08;;;;;;;3.37;3.13;;;25.50;30.10;;;;;;20696;6771;117256;-72
2022/05/03 09:52:44;;;;;;;4.20;4.00;;;25.40;30.50;;;;;;20724;6786;118489;-70
2022/05/03 09:55:33;;;;;;;5.07;4.77;;;25.20;31.70;;;;;;20600;6760;306717;-72
2022/05/03 09:58:09;;;;;;;4.77;4.57;;;25.30;33.20;;;;;;20552;6772;294162;-73
2022/05/03 10:00:44;;;;;;;5.10;4.57;;;25.70;32.60;;;;;;20805;6742;117122;-72
2022/05/03 10:03:20;;;;;;;4.80;4.50;;;25.70;32.80;;;;;;20764;6771;119251;-71
2022/05/03 10:05:55;;;;;;;4.77;4.50;;;25.60;33.00;;;;;;20815;6752;123639;-72
2022/05/03 10:08:30;;;;;;;4.97;4.67;;;25.40;32.90;;;;;;20519;6781;311749;-71
2022/05/03 10:11:06;;;;;;;4.57;4.32;;;25.60;31.60;;;;;;20439;6783;310213;-69
2022/05/03 10:13:41;;;;;;;3.57;3.37;;;25.80;31.80;;;;;;20773;6766;119193;-70
2022/05/03 10:22:08;;;;;;;5.60;5.30;;;26.20;32.30;;;;;;20399;6771;310667;-70
2022/05/03 10:24:58;;;;;;;4.33;3.80;;;26.50;32.30;;;;;;20766;6771;117235;-69
2022/05/03 10:27:32;;;;;;;3.10;3.00;;;26.40;31.80;;;;;;20537;6770;282601;-70
2022/05/03 10:30:19;;;;;;;3.70;3.50;;;26.40;29.10;;;;;;20488;6831;279679;-69
2022/05/03 10:32:53;;;;;;;3.03;2.93;;;26.50;28.40;;;;;;20744;6770;121487;-69
2022/05/03 10:35:32;;;;;;;4.17;3.83;;;26.30;29.20;;;;;;20444;6831;123692;-73
2022/05/03 10:38:07;;;;;;;3.80;3.50;;;26.00;29.80;;;;;;20790;6760;117788;-69
2022/05/03 10:40:43;;;;;;;6.90;5.70;;;25.80;29.70;;;;;;20493;6775;313739;-69
2022/05/03 10:43:28;;;;;;;4.20;3.77;;;25.80;29.60;;;;;;20760;6771;124079;-69
2022/05/03 10:46:13;;;;;;;4.27;4.00;;;25.80;29.70;;;;;;20768;6771;117318;-69
2022/05/03 10:49:11;;;;;;;4.00;3.80;;;25.40;30.20;;;;;;20683;6831;265733;-69
2022/05/03 10:51:46;;;;;;;4.60;4.30;;;25.40;30.20;;;;;;20406;6771;308246;-67
2022/05/03 10:54:21;;;;;;;4.10;3.90;;;25.70;31.50;;;;;;20780;6765;117128;-68
2022/05/03 10:57:00;;;;;;;4.30;4.00;;;25.80;31.30;;;;;;20578;6765;290920;-70
2022/05/03 10:59:48;;;;;;;14.40;12.90;;;26.40;30.80;;;;;;20532;6765;282035;-72
2022/05/03 11:02:23;;;;;;;5.00;4.70;;;26.40;30.80;;;;;;20779;6765;117524;-71
2022/05/03 11:05:12;;;;;;;5.65;5.25;;;26.40;30.70;;;;;;20558;6765;338013;-69
2022/05/03 11:07:54;;;;;;;5.80;5.13;;;26.50;30.60;;;;;;20762;6765;117608;-71
2022/05/03 11:10:39;;;;;;;5.03;4.73;;;26.50;30.50;;;;;;20619;6827;117190;-71
2022/05/03 11:13:34;;;;;;;5.35;5.05;;;26.30;30.70;;;;;;20535;6786;311627;-70
2022/05/03 11:16:21;;;;;;;5.82;5.47;;;26.60;29.70;;;;;;20503;6786;318348;-69
2022/05/03 11:18:56;;;;;;;5.40;5.00;;;26.60;29.60;;;;;;20737;6781;117269;-71
2022/05/03 11:21:32;;;;;;;4.73;4.50;;;26.30;29.90;;;;;;20586;6781;123704;-72
2022/05/03 11:24:20;;;;;;;5.00;4.80;;;25.80;30.40;;;;;;20717;6786;117319;-72
2022/05/03 11:26:57;;;;;;;4.80;4.60;;;25.30;30.70;;;;;;20730;6781;118316;-72
2022/05/03 11:29:36;;;;;;;5.33;4.30;;;25.00;31.00;;;;;;20734;6781;117592;-70
2022/05/03 11:32:11;;;;;;;5.50;5.00;;;24.60;31.40;;;;;;20356;6786;318231;-72
2022/05/03 11:34:47;;;;;;;5.20;4.90;;;24.80;31.60;;;;;;20479;6816;309379;-71
2022/05/03 11:37:23;;;;;;;4.80;4.50;;;25.20;31.50;;;;;;20534;6799;307263;-70
2022/05/03 11:40:07;;;;;;;5.37;4.97;;;25.10;31.40;;;;;;20452;6815;307691;-71
2022/05/03 11:42:45;;;;;;;4.50;4.20;;;25.10;30.80;;;;;;20752;6792;117288;-71
2022/05/03 11:45:20;;;;;;;5.03;4.60;;;25.00;30.50;;;;;;20798;6769;118076;-69
2022/05/03 11:47:56;;;;;;;4.00;3.80;;;24.80;30.70;;;;;;20815;6756;119213;-70
2022/05/03 11:56:23;;;;;;;3.90;3.60;;;24.80;30.20;;;;;;20835;6751;117140;-70
2022/05/03 11:59:00;;;;;;;4.20;3.90;;;24.60;30.60;;;;;;20621;6752;307533;-71
2022/05/03 12:01:36;;;;;;;3.60;3.40;;;24.40;31.70;;;;;;20686;6752;121224;-69
2022/05/03 12:04:11;;;;;;;3.83;3.63;;;24.40;31.70;;;;;;20663;6737;301699;-69
2022/05/03 12:06:48;;;;;;;4.10;3.77;;;24.40;33.30;;;;;;20618;6752;277549;-69
2022/05/03 12:09:23;;;;;;;4.10;3.80;;;24.50;33.30;;;;;;20823;6752;117429;-69
2022/05/03 12:14:54;;;;;;;6.30;3.70;;;24.30;35.60;;;;;;20842;6746;117066;-70
2022/05/03 12:17:29;;;;;;;4.70;4.20;;;24.20;36.00;;;;;;20583;6756;281342;-72
2022/05/03 12:20:05;;;;;;;4.77;4.50;;;24.20;39.30;;;;;;20774;6812;117156;-70
2022/05/03 12:22:41;;;;;;;4.53;4.20;;;23.90;38.10;;;;;;20661;6737;306691;-70
2022/05/03 12:25:26;;;;;;;4.30;4.10;;;23.90;38.10;;;;;;20616;6752;286544;-70
2022/05/03 12:28:02;;;;;;;4.70;4.33;;;23.90;37.70;;;;;;20603;6751;281578;-70
2022/05/03 12:30:38;;;;;;;4.30;4.10;;;23.90;37.70;;;;;;20746;6752;117625;-69
2022/05/03 12:33:14;;;;;;;4.60;4.30;;;23.70;38.20;;;;;;20608;6752;306363;-70
2022/05/03 12:35:49;;;;;;;4.40;4.20;;;23.70;39.50;;;;;;20801;6752;117018;-70
2022/05/03 12:38:24;;;;;;;4.07;3.83;;;23.60;39.00;;;;;;20872;6737;116955;-71
2022/05/03 12:41:00;;;;;;;4.13;3.73;;;23.40;38.80;;;;;;20762;6737;117055;-70
2022/05/03 12:43:36;;;;;;;4.13;3.93;;;23.20;38.20;;;;;;20858;6737;120807;-70
2022/05/03 12:46:11;;;;;;;3.90;3.70;;;23.10;38.00;;;;;;20656;6737;306812;-70
2022/05/03 12:48:47;;;;;;;4.10;3.80;;;23.40;38.50;;;;;;20882;6737;118156;-71
2022/05/03 12:51:22;;;;;;;4.53;4.23;;;23.40;37.50;;;;;;20739;6736;123307;-69
2022/05/03 12:54:05;;;;;;;3.67;3.50;;;23.40;36.40;;;;;;20635;6736;307483;-73
2022/05/03 12:59:33;;;;;;;3.60;3.30;;;23.70;36.40;;;;;;20646;6737;314820;-73
2022/05/03 13:02:09;;;;;;;3.50;3.30;;;24.00;36.60;;;;;;20660;6737;119152;-72
2022/05/03 13:04:45;;;;;;;3.40;3.10;;;23.80;34.50;;;;;;20660;6737;305802;-73
2022/05/03 13:07:21;;;;;;;15.73;14.43;;;23.80;34.50;;;;;;20663;6737;305582;-73
2022/05/03 13:09:58;;;;;;;3.00;2.80;;;23.80;33.80;;;;;;20845;6737;119031;-75
2022/05/03 13:12:33;;;;;;;3.40;3.10;;;23.50;34.00;;;;;;20875;6737;117569;-73
2022/05/03 13:15:10;;;;;;;3.10;2.90;;;22.90;35.00;;;;;;20653;6737;305146;-74
2022/05/03 13:17:45;;;;;;;3.37;3.17;;;22.90;35.00;;;;;;20643;6737;306915;-74
2022/05/03 13:20:21;;;;;;;3.93;3.40;;;23.10;35.20;;;;;;20606;6737;308431;-74
2022/05/03 13:22:56;;;;;;;3.00;2.90;;;23.30;34.30;;;;;;20875;6737;116958;-73
2022/05/03 13:25:32;;;;;;;3.30;3.20;;;23.10;34.50;;;;;;20643;6737;276933;-73
2022/05/03 13:28:07;;;;;;;3.50;3.30;;;23.00;34.70;;;;;;20659;6737;310381;-75
2022/05/03 13:30:43;;;;;;;4.00;3.80;;;23.10;34.90;;;;;;20805;6737;120945;-73
2022/05/03 13:33:19;;;;;;;3.60;3.30;;;22.90;35.10;;;;;;20657;6737;310667;-71
2022/05/03 13:41:45;;;;;;;4.40;4.10;;;22.10;36.30;;;;;;20680;6737;121046;-70
2022/05/03 13:44:21;;;;;;;4.60;4.40;;;21.70;37.30;;;;;;20878;6737;116954;-70
2022/05/03 13:46:58;;;;;;;4.70;4.40;;;21.40;38.10;;;;;;20671;6737;306072;-70
2022/05/03 13:49:32;;;;;;;4.40;4.10;;;21.50;39.80;;;;;;20853;6737;118260;-70
2022/05/03 13:52:08;;;;;;;4.53;4.30;;;21.50;40.20;;;;;;20455;6737;309490;-71
2022/05/03 13:54:44;;;;;;;5.12;4.80;;;21.50;40.10;;;;;;20656;6737;304322;-69
2022/05/03 13:57:19;;;;;;;7.37;4.63;;;21.70;40.20;;;;;;20877;6737;117362;-70
2022/05/03 13:59:55;;;;;;;4.95;4.62;;;21.50;40.10;;;;;;20636;6737;306562;-70
2022/05/03 14:02:33;;;;;;;4.70;4.40;;;21.50;40.80;;;;;;20880;6736;117409;-70